Time;durP1;ratioP1;P1;durP2;ratioP2;P2;SDS_P1;SDS_P2;PMS_P1;PMS_P2;Temp;Humidity;BMP_temperature;BMP_pressure;BME280_temperature;BME280_humidity;BME280_pressure;Samples;Min_cycle;Max_cycle;Signal;HPM_P1;HPM_P2
2022/06/17 00:01:44;;;;;;;5.47;3.57;;;15.50;99.90;;;;;;5014163;28;20223;-78
2022/06/17 00:04:28;;;;;;;3.80;3.27;;;15.50;99.90;;;;;;5010235;28;20291;-76
2022/06/17 00:07:15;;;;;;;5.50;3.50;;;15.50;99.90;;;;;;4998491;28;20586;-77
2022/06/17 00:09:59;;;;;;;7.90;3.83;;;15.40;99.90;;;;;;5013193;28;20222;-78
2022/06/17 00:12:43;;;;;;;7.30;3.80;;;15.30;99.90;;;;;;5010090;28;20203;-77
2022/06/17 00:15:27;;;;;;;3.63;3.20;;;15.30;99.90;;;;;;5005481;28;20195;-78
2022/06/17 00:18:14;;;;;;;4.27;3.57;;;15.20;99.90;;;;;;5011641;28;20183;-77
2022/06/17 00:20:58;;;;;;;5.20;3.60;;;15.10;99.90;;;;;;5005014;28;20224;-77
2022/06/17 00:23:42;;;;;;;6.07;3.27;;;15.10;99.90;;;;;;5021634;28;20187;-79
2022/06/17 00:26:26;;;;;;;5.53;3.70;;;15.00;99.90;;;;;;5022836;28;20208;-80
2022/06/17 00:29:12;;;;;;;7.00;3.93;;;15.00;99.90;;;;;;5028462;28;20238;-77
2022/06/17 00:31:58;;;;;;;7.07;4.10;;;14.90;99.90;;;;;;5008908;28;20226;-76
2022/06/17 00:34:42;;;;;;;6.20;4.07;;;14.90;99.90;;;;;;5013990;28;20194;-76
2022/06/17 00:37:26;;;;;;;7.50;4.20;;;14.90;99.90;;;;;;5006089;28;20199;-75
2022/06/17 00:40:15;;;;;;;5.87;4.23;;;14.80;99.90;;;;;;5012849;28;20698;-75
2022/06/17 00:43:07;;;;;;;4.07;3.67;;;14.80;99.90;;;;;;5012126;28;20219;-76
2022/06/17 00:45:58;;;;;;;6.83;3.90;;;14.70;99.90;;;;;;5010340;28;20207;-75
2022/06/17 00:49:27;;;;;;;5.50;3.97;;;14.70;99.90;;;;;;5014603;28;20202;-76
2022/06/17 00:52:26;;;;;;;7.23;4.03;;;14.60;99.90;;;;;;5026344;28;20764;-75
2022/06/17 00:55:42;;;;;;;5.83;4.17;;;14.50;99.90;;;;;;5015641;28;20272;-76
2022/06/17 00:58:34;;;;;;;4.70;3.90;;;14.40;99.90;;;;;;5010546;28;20267;-76
2022/06/17 01:01:18;;;;;;;5.67;4.47;;;14.40;99.90;;;;;;5006814;28;20220;-77
2022/06/17 01:04:05;;;;;;;7.17;4.50;;;14.30;99.90;;;;;;5004835;28;20222;-76
2022/06/17 01:07:07;;;;;;;5.63;4.53;;;14.30;99.90;;;;;;5011194;28;20570;-76
2022/06/17 01:10:01;;;;;;;4.90;4.40;;;14.30;99.90;;;;;;5018714;28;20182;-76
2022/06/17 01:13:04;;;;;;;5.07;4.47;;;14.30;99.90;;;;;;5009190;28;20580;-76
2022/06/17 01:15:50;;;;;;;8.57;4.37;;;14.20;99.90;;;;;;5024734;28;20190;-75
2022/06/17 01:18:41;;;;;;;7.47;4.23;;;14.20;99.90;;;;;;5002064;28;20292;-76
2022/06/17 01:21:45;;;;;;;5.60;4.97;;;14.20;99.90;;;;;;5028245;28;20211;-76
2022/06/17 01:24:30;;;;;;;5.80;5.20;;;14.20;99.90;;;;;;5009462;28;20566;-76
2022/06/17 01:27:18;;;;;;;9.70;4.83;;;14.20;99.90;;;;;;5020248;28;20203;-76
2022/06/17 01:30:05;;;;;;;8.53;5.00;;;14.20;99.90;;;;;;5018613;28;20207;-76
2022/06/17 01:33:00;;;;;;;7.50;4.67;;;14.10;99.90;;;;;;5010126;28;20227;-76
2022/06/17 01:35:52;;;;;;;5.50;4.17;;;14.10;99.90;;;;;;5009205;28;20198;-76
2022/06/17 01:38:39;;;;;;;8.37;4.77;;;14.00;99.90;;;;;;5009535;28;20192;-76
2022/06/17 01:41:30;;;;;;;9.53;5.17;;;14.00;99.90;;;;;;5024542;28;20343;-75
2022/06/17 01:44:19;;;;;;;6.70;5.00;;;14.00;99.90;;;;;;5007608;28;20201;-76
2022/06/17 01:47:25;;;;;;;6.07;4.80;;;13.90;99.90;;;;;;5007124;28;20195;-74
2022/06/17 01:50:22;;;;;;;5.43;4.60;;;13.90;99.90;;;;;;5031579;28;20211;-75
2022/06/17 01:53:12;;;;;;;5.63;4.43;;;13.90;99.90;;;;;;5011744;28;20247;-76
2022/06/17 01:56:04;;;;;;;5.20;4.60;;;13.90;99.90;;;;;;5014021;28;20177;-76
2022/06/17 01:59:00;;;;;;;6.23;4.87;;;13.90;99.90;;;;;;5028302;28;20242;-76
2022/06/17 02:01:48;;;;;;;6.57;4.63;;;13.90;99.90;;;;;;5013950;28;20709;-75
2022/06/17 02:04:36;;;;;;;6.00;5.40;;;13.90;99.90;;;;;;5025171;28;20191;-76
2022/06/17 02:07:43;;;;;;;11.23;5.77;;;13.80;99.90;;;;;;5011806;28;20195;-76
2022/06/17 02:10:31;;;;;;;6.53;5.37;;;13.80;99.90;;;;;;5023869;28;20222;-75
2022/06/17 02:13:16;;;;;;;7.70;5.30;;;13.80;99.90;;;;;;5011922;28;20224;-77
2022/06/17 02:16:02;;;;;;;6.63;5.40;;;13.70;99.90;;;;;;5010599;28;20723;-76
2022/06/17 02:18:47;;;;;;;6.27;4.77;;;13.70;99.90;;;;;;5008577;28;20319;-77
2022/06/17 02:21:39;;;;;;;7.33;5.50;;;13.70;99.90;;;;;;5012982;28;20218;-76
2022/06/17 02:24:26;;;;;;;6.73;5.87;;;13.60;99.90;;;;;;5008435;28;20266;-77
2022/06/17 02:27:12;;;;;;;8.93;5.27;;;13.60;99.90;;;;;;5013365;28;20195;-75
2022/06/17 02:29:57;;;;;;;5.50;5.00;;;13.60;99.90;;;;;;5013088;28;20235;-76
2022/06/17 02:32:42;;;;;;;6.20;5.10;;;13.60;99.90;;;;;;5032675;28;20312;-76
2022/06/17 02:35:45;;;;;;;7.23;4.83;;;13.60;99.90;;;;;;5009723;28;20215;-75
2022/06/17 02:38:32;;;;;;;6.30;5.20;;;13.60;99.90;;;;;;5010952;28;20211;-79
2022/06/17 02:41:19;;;;;;;6.53;5.43;;;13.60;99.90;;;;;;5001693;28;20703;-75
2022/06/17 02:44:16;;;;;;;8.10;5.87;;;13.50;99.90;;;;;;5014536;28;20187;-76
2022/06/17 02:47:01;;;;;;;11.03;5.97;;;13.50;99.90;;;;;;5011139;28;20210;-79
2022/06/17 02:49:46;;;;;;;6.83;6.13;;;13.40;99.90;;;;;;5025100;28;20198;-76
2022/06/17 02:52:38;;;;;;;8.30;5.70;;;13.40;99.90;;;;;;5024981;28;20283;-76
2022/06/17 02:55:30;;;;;;;8.33;5.47;;;13.40;99.90;;;;;;5016699;28;20183;-76
2022/06/17 02:58:39;;;;;;;6.57;5.77;;;13.30;99.90;;;;;;5032161;28;20215;-75
2022/06/17 03:01:27;;;;;;;9.73;5.40;;;13.30;99.90;;;;;;5031422;28;20349;-76
2022/06/17 03:04:19;;;;;;;6.83;5.80;;;13.30;99.90;;;;;;5024136;28;20212;-76
2022/06/17 03:07:12;;;;;;;8.63;6.23;;;13.20;99.90;;;;;;5014836;28;20215;-76
2022/06/17 03:09:57;;;;;;;6.63;5.70;;;13.20;99.90;;;;;;5009771;28;20230;-76
2022/06/17 03:12:43;;;;;;;15.27;5.83;;;13.20;99.90;;;;;;5007145;28;20205;-76
2022/06/17 03:15:28;;;;;;;7.47;5.47;;;13.20;99.90;;;;;;5007349;28;20659;-77
2022/06/17 03:18:13;;;;;;;8.03;5.67;;;13.20;99.90;;;;;;5011190;28;20323;-76
2022/06/17 03:21:00;;;;;;;9.53;6.10;;;13.20;99.90;;;;;;5010608;28;20705;-76
2022/06/17 03:23:57;;;;;;;10.47;6.13;;;13.20;99.90;;;;;;5003614;28;20200;-77
2022/06/17 03:26:49;;;;;;;14.40;6.27;;;13.20;99.90;;;;;;5008246;28;20603;-76
2022/06/17 03:29:34;;;;;;;10.83;5.50;;;13.20;99.90;;;;;;5030393;28;20688;-75
2022/06/17 03:32:23;;;;;;;8.10;6.00;;;13.20;99.90;;;;;;5010776;28;20231;-76
2022/06/17 03:35:18;;;;;;;9.90;5.80;;;13.30;99.90;;;;;;5008416;28;20195;-76
2022/06/17 03:38:28;;;;;;;9.07;6.07;;;13.30;99.90;;;;;;5022576;28;20215;-77
2022/06/17 03:41:26;;;;;;;21.10;8.03;;;13.20;99.90;;;;;;5006614;28;20267;-76
2022/06/17 03:44:17;;;;;;;21.63;7.53;;;13.20;99.90;;;;;;5015846;28;20183;-75
2022/06/17 03:47:05;;;;;;;53.83;11.50;;;13.20;99.90;;;;;;5012616;28;20670;-76
2022/06/17 03:49:57;;;;;;;37.07;12.37;;;13.20;99.90;;;;;;5016822;28;20199;-76
2022/06/17 03:52:48;;;;;;;28.10;8.37;;;13.20;99.90;;;;;;5006878;28;20250;-76
2022/06/17 03:55:33;;;;;;;24.33;9.00;;;13.20;99.90;;;;;;5009661;28;20195;-75
2022/06/17 03:58:19;;;;;;;19.67;7.90;;;13.20;99.90;;;;;;5021999;28;20195;-76
2022/06/17 04:01:39;;;;;;;15.37;8.07;;;13.20;99.90;;;;;;5006854;28;20242;-76
2022/06/17 04:04:27;;;;;;;16.03;7.70;;;13.30;99.90;;;;;;5019971;28;20182;-76
2022/06/17 04:07:13;;;;;;;17.33;7.83;;;13.20;99.90;;;;;;5011149;28;20188;-78
2022/06/17 04:09:58;;;;;;;19.90;8.40;;;13.30;99.90;;;;;;5002323;28;20187;-76
2022/06/17 04:12:47;;;;;;;16.70;8.40;;;13.30;99.90;;;;;;5023812;28;20334;-75
2022/06/17 04:15:50;;;;;;;21.37;8.20;;;13.30;99.90;;;;;;5008732;28;20352;-76
2022/06/17 04:18:35;;;;;;;16.03;8.63;;;13.30;99.90;;;;;;5002822;28;20191;-77
2022/06/17 04:21:20;;;;;;;14.77;7.97;;;13.30;99.90;;;;;;5011583;28;20295;-76
2022/06/17 04:24:07;;;;;;;14.00;7.70;;;13.30;99.90;;;;;;5002219;28;20196;-76
2022/06/17 04:26:56;;;;;;;11.30;7.67;;;13.40;99.90;;;;;;5021651;28;20240;-76
2022/06/17 04:29:44;;;;;;;13.60;7.70;;;13.40;99.90;;;;;;5011109;28;20188;-76
2022/06/17 04:32:33;;;;;;;11.47;7.10;;;13.40;99.90;;;;;;5007528;28;20223;-76
2022/06/17 04:35:25;;;;;;;13.63;7.17;;;13.50;99.90;;;;;;5005176;28;20188;-76
2022/06/17 04:38:10;;;;;;;13.73;7.80;;;13.50;99.90;;;;;;5022209;28;20281;-76
2022/06/17 04:40:59;;;;;;;12.37;8.20;;;13.50;99.90;;;;;;5009044;28;20228;-76
2022/06/17 04:43:47;;;;;;;17.47;8.97;;;13.60;99.90;;;;;;5009001;28;20194;-76
2022/06/17 04:46:44;;;;;;;19.37;9.33;;;13.60;99.90;;;;;;5010055;28;20570;-74
2022/06/17 04:49:31;;;;;;;16.43;8.83;;;13.70;99.90;;;;;;5008128;28;20191;-75
2022/06/17 04:52:35;;;;;;;24.17;8.70;;;13.80;99.90;;;;;;5020129;28;20293;-77
2022/06/17 04:55:24;;;;;;;21.63;9.20;;;13.90;99.90;;;;;;5015987;28;20191;-78
2022/06/17 04:58:14;;;;;;;18.77;10.13;;;14.00;99.90;;;;;;5017145;28;20219;-75
2022/06/17 05:00:58;;;;;;;12.50;9.63;;;14.00;99.90;;;;;;5022212;28;20713;-76
2022/06/17 05:03:42;;;;;;;14.53;9.87;;;14.10;99.90;;;;;;5009045;28;20198;-76
2022/06/17 05:06:26;;;;;;;11.83;10.37;;;14.20;99.90;;;;;;5028084;28;20239;-77
2022/06/17 05:09:37;;;;;;;17.03;10.30;;;14.30;99.90;;;;;;5024074;28;20196;-75
2022/06/17 05:12:34;;;;;;;11.20;9.90;;;14.50;99.90;;;;;;5011000;28;20237;-76
2022/06/17 05:15:21;;;;;;;13.60;9.43;;;14.50;99.90;;;;;;5012908;28;20203;-76
2022/06/17 05:18:06;;;;;;;13.90;10.10;;;14.60;99.90;;;;;;5011963;28;20191;-76
2022/06/17 05:20:50;;;;;;;12.43;9.37;;;14.70;99.90;;;;;;5013271;28;20238;-76
2022/06/17 05:23:34;;;;;;;14.60;9.70;;;14.80;99.90;;;;;;5015502;28;20195;-76
2022/06/17 05:26:19;;;;;;;12.10;8.80;;;14.90;99.90;;;;;;5013577;28;20191;-76
2022/06/17 05:29:03;;;;;;;13.77;8.23;;;14.90;99.90;;;;;;5011029;28;20190;-77
2022/06/17 05:31:51;;;;;;;9.40;8.27;;;15.00;99.90;;;;;;5015384;28;20215;-79
2022/06/17 05:34:35;;;;;;;10.57;8.03;;;15.10;99.90;;;;;;5013501;28;20237;-76
2022/06/17 05:37:19;;;;;;;13.47;8.27;;;15.20;99.90;;;;;;5012532;28;20216;-76
2022/06/17 05:40:06;;;;;;;10.67;8.73;;;15.30;99.90;;;;;;5008715;28;20705;-74
2022/06/17 05:42:50;;;;;;;14.80;9.77;;;15.40;99.90;;;;;;5016397;28;20679;-76
2022/06/17 05:45:35;;;;;;;14.20;9.43;;;15.50;99.90;;;;;;5014717;28;20246;-77
2022/06/17 05:48:19;;;;;;;10.87;9.20;;;15.70;99.90;;;;;;5010137;28;20226;-76
2022/06/17 05:51:03;;;;;;;13.43;9.27;;;15.80;99.90;;;;;;5012218;28;20218;-75
2022/06/17 05:53:47;;;;;;;14.53;9.90;;;15.90;99.90;;;;;;5014532;28;20242;-77
2022/06/17 05:56:31;;;;;;;12.20;9.33;;;16.00;99.90;;;;;;5010820;28;20583;-78
2022/06/17 05:59:17;;;;;;;16.03;10.97;;;16.20;99.90;;;;;;5016168;28;20223;-75
2022/06/17 06:02:01;;;;;;;15.90;9.53;;;16.30;99.90;;;;;;5009347;28;20214;-76
2022/06/17 06:04:45;;;;;;;11.93;9.47;;;16.40;99.90;;;;;;5015586;28;20215;-76
2022/06/17 06:07:29;;;;;;;16.50;9.20;;;16.60;99.90;;;;;;5008377;28;20187;-76
2022/06/17 06:10:15;;;;;;;8.60;7.70;;;16.80;99.90;;;;;;5010557;28;20334;-75
2022/06/17 06:13:05;;;;;;;15.17;7.37;;;16.90;99.90;;;;;;5015921;28;20227;-76
2022/06/17 06:15:54;;;;;;;12.83;6.63;;;17.10;99.90;;;;;;5015010;28;20183;-75
2022/06/17 06:18:39;;;;;;;11.30;6.80;;;17.30;99.90;;;;;;5008785;28;20275;-77
2022/06/17 06:21:23;;;;;;;5.67;4.23;;;17.50;99.90;;;;;;5025076;28;20730;-76
2022/06/17 06:24:08;;;;;;;5.00;4.20;;;17.70;99.90;;;;;;5015973;28;20179;-76
2022/06/17 06:26:52;;;;;;;6.10;4.17;;;17.80;99.90;;;;;;5023845;28;20191;-76
2022/06/17 06:29:36;;;;;;;4.90;3.53;;;18.00;99.90;;;;;;5009399;28;20187;-76
2022/06/17 06:32:20;;;;;;;5.03;3.63;;;18.10;99.90;;;;;;5004414;28;20243;-76
2022/06/17 06:35:04;;;;;;;5.93;3.57;;;18.20;99.90;;;;;;5027192;28;20254;-76
2022/06/17 06:37:48;;;;;;;7.47;4.20;;;18.30;99.90;;;;;;5011080;28;20191;-76
2022/06/17 06:40:34;;;;;;;6.97;3.80;;;18.50;99.90;;;;;;5011918;28;20212;-76
2022/06/17 06:43:20;;;;;;;7.17;3.60;;;18.60;99.90;;;;;;5033025;28;20199;-74
2022/06/17 06:46:07;;;;;;;8.60;3.80;;;18.70;99.90;;;;;;5014269;28;20822;-76
2022/06/17 06:48:52;;;;;;;4.53;4.07;;;18.70;99.90;;;;;;5000802;28;20188;-76
2022/06/17 06:51:36;;;;;;;5.73;4.17;;;18.80;99.90;;;;;;5004832;28;20301;-76
2022/06/17 06:54:20;;;;;;;8.77;4.30;;;18.90;99.90;;;;;;5013532;28;20207;-76
2022/06/17 06:57:04;;;;;;;10.73;4.77;;;18.90;99.90;;;;;;5012460;28;20247;-76
2022/06/17 06:59:48;;;;;;;6.87;4.27;;;19.00;99.90;;;;;;5012532;28;20191;-75
2022/06/17 07:02:33;;;;;;;6.60;4.60;;;19.10;99.90;;;;;;5009146;28;20223;-76
2022/06/17 07:05:18;;;;;;;6.57;4.60;;;19.20;99.90;;;;;;5017179;28;20284;-75
2022/06/17 07:08:04;;;;;;;6.07;4.68;;;19.30;99.90;;;;;;4999931;28;20723;-75
2022/06/17 07:10:49;;;;;;;5.47;4.00;;;19.40;99.90;;;;;;5008732;28;20239;-75
2022/06/17 07:13:33;;;;;;;6.70;3.55;;;19.40;99.90;;;;;;5016203;28;20571;-75
2022/06/17 07:16:18;;;;;;;9.15;4.75;;;19.50;99.90;;;;;;5009055;28;20176;-75
2022/06/17 07:19:07;;;;;;;6.78;4.40;;;19.60;99.90;;;;;;5003769;28;20184;-77
2022/06/17 07:21:51;;;;;;;5.95;3.72;;;19.70;99.90;;;;;;5011872;28;20691;-76
2022/06/17 07:24:36;;;;;;;7.85;3.85;;;19.80;99.90;;;;;;5019893;28;20220;-76
2022/06/17 07:27:20;;;;;;;6.38;3.70;;;19.90;99.90;;;;;;5027406;28;20674;-76
2022/06/17 07:30:04;;;;;;;6.40;3.33;;;20.00;99.90;;;;;;5016749;28;20187;-75
2022/06/17 07:32:49;;;;;;;7.63;3.38;;;20.10;99.90;;;;;;5012524;28;20694;-76
2022/06/17 07:35:34;;;;;;;7.40;3.15;;;20.20;99.90;;;;;;5023509;28;20237;-75
2022/06/17 07:41:25;;;;;;;6.65;2.92;;;20.30;99.90;;;;;;5019259;28;20227;-77
2022/06/17 07:44:09;;;;;;;10.57;3.47;;;20.40;99.90;;;;;;5011165;28;20183;-78
2022/06/17 07:46:54;;;;;;;8.63;3.40;;;20.50;99.90;;;;;;5017155;28;20780;-76
2022/06/17 07:49:38;;;;;;;5.72;2.40;;;20.60;99.90;;;;;;5005596;28;20191;-76
2022/06/17 07:52:23;;;;;;;6.28;2.95;;;20.60;99.90;;;;;;5002667;28;20228;-75
2022/06/17 07:55:07;;;;;;;3.35;2.83;;;20.80;99.90;;;;;;5008678;28;20291;-76
2022/06/17 07:57:52;;;;;;;7.53;2.90;;;20.80;99.90;;;;;;5019097;28;20203;-75
2022/06/17 08:00:41;;;;;;;4.40;3.08;;;20.90;99.90;;;;;;5006771;28;20213;-76
2022/06/17 08:03:25;;;;;;;4.05;2.65;;;21.00;99.90;;;;;;5001479;28;20203;-76
2022/06/17 08:06:14;;;;;;;5.00;2.85;;;21.00;99.90;;;;;;4996054;28;20207;-75
2022/06/17 08:08:59;;;;;;;5.38;2.80;;;21.10;99.90;;;;;;5012213;28;20187;-75
2022/06/17 08:11:43;;;;;;;5.82;2.50;;;21.20;99.90;;;;;;5003768;28;20278;-76
2022/06/17 08:14:27;;;;;;;9.23;3.03;;;21.30;99.90;;;;;;5014701;28;20238;-76
2022/06/17 08:17:15;;;;;;;3.53;2.33;;;21.40;99.90;;;;;;5003175;28;20236;-76
2022/06/17 08:19:59;;;;;;;5.32;2.50;;;21.50;99.90;;;;;;5022528;28;20198;-78
2022/06/17 08:22:43;;;;;;;8.02;3.33;;;21.50;99.90;;;;;;5010026;28;20200;-80
2022/06/17 08:25:27;;;;;;;3.63;2.33;;;21.60;99.90;;;;;;5011135;28;20208;-75
2022/06/17 08:28:13;;;;;;;3.05;2.38;;;21.60;99.90;;;;;;5008157;28;20195;-76
2022/06/17 08:30:58;;;;;;;8.38;2.90;;;21.70;99.90;;;;;;5013295;28;20278;-76
2022/06/17 08:33:42;;;;;;;5.63;2.75;;;21.70;99.90;;;;;;5009044;28;20191;-75
2022/06/17 08:36:28;;;;;;;5.45;2.63;;;21.80;99.90;;;;;;5009160;28;20191;-75
2022/06/17 08:39:14;;;;;;;3.35;2.60;;;21.80;99.90;;;;;;5021251;28;20211;-76
2022/06/17 08:42:12;;;;;;;6.95;2.70;;;21.90;99.90;;;;;;5003252;28;20925;-75
2022/06/17 08:45:15;;;;;;;4.10;2.65;;;21.90;99.90;;;;;;5011751;28;20267;-74
2022/06/17 08:48:24;;;;;;;3.85;2.80;;;21.90;99.90;;;;;;5011267;28;20561;-75
2022/06/17 08:51:26;;;;;;;8.20;3.08;;;22.00;99.90;;;;;;5018867;28;20241;-76
2022/06/17 08:54:17;;;;;;;6.07;3.30;;;22.00;99.90;;;;;;5023355;28;20198;-76
2022/06/17 08:57:13;;;;;;;6.93;3.17;;;22.10;99.90;;;;;;5010913;28;20206;-75
2022/06/17 09:00:18;;;;;;;5.55;2.88;;;22.10;99.90;;;;;;5017959;28;20190;-76
2022/06/17 09:03:43;;;;;;;8.00;3.17;;;22.20;99.90;;;;;;5005778;28;20654;-75
2022/06/17 09:06:45;;;;;;;6.90;2.80;;;22.30;99.90;;;;;;5017686;28;20253;-75
2022/06/17 09:09:46;;;;;;;6.47;2.80;;;22.40;99.90;;;;;;5011299;28;20195;-76
2022/06/17 09:12:43;;;;;;;3.03;2.65;;;22.50;99.90;;;;;;5008848;28;20254;-76
2022/06/17 09:15:54;;;;;;;7.07;3.30;;;22.60;99.90;;;;;;5008886;28;20188;-75
2022/06/17 09:18:49;;;;;;;6.93;3.17;;;22.80;99.90;;;;;;5015712;28;20196;-74
2022/06/17 09:21:49;;;;;;;4.72;3.03;;;22.90;99.90;;;;;;5012375;28;20215;-75
2022/06/17 09:24:42;;;;;;;8.02;3.08;;;23.00;99.90;;;;;;5006098;28;20202;-75
2022/06/17 09:27:31;;;;;;;7.47;2.90;;;23.10;99.90;;;;;;5008237;28;20239;-75
2022/06/17 09:30:34;;;;;;;6.72;2.70;;;23.20;99.90;;;;;;5010729;28;20215;-75
2022/06/17 09:33:27;;;;;;;6.43;2.88;;;23.30;99.90;;;;;;4999504;28;20259;-76
2022/06/17 09:36:18;;;;;;;5.57;2.97;;;23.40;99.90;;;;;;5009254;28;20187;-75
2022/06/17 09:39:15;;;;;;;4.75;2.72;;;23.30;99.90;;;;;;5028502;28;20199;-75
2022/06/17 09:42:20;;;;;;;6.75;2.55;;;23.30;99.90;;;;;;5028506;28;20266;-75
2022/06/17 09:45:13;;;;;;;9.77;2.92;;;23.30;99.90;;;;;;5009900;28;20267;-75
2022/06/17 09:48:03;;;;;;;6.82;2.80;;;23.30;99.90;;;;;;5023138;28;20220;-75
2022/06/17 09:51:10;;;;;;;7.75;2.58;;;23.40;99.90;;;;;;5014485;28;20219;-75
2022/06/17 09:54:05;;;;;;;7.30;2.88;;;23.50;99.90;;;;;;5021986;28;20215;-75
2022/06/17 09:57:08;;;;;;;3.70;3.08;;;23.60;99.90;;;;;;5004996;28;20212;-75
2022/06/17 10:00:07;;;;;;;4.78;2.90;;;23.70;99.90;;;;;;5032851;28;20191;-75
2022/06/17 10:02:57;;;;;;;7.38;2.53;;;23.80;99.90;;;;;;5018207;28;20203;-75
2022/06/17 10:06:04;;;;;;;6.18;2.70;;;23.80;99.90;;;;;;5012936;28;20198;-75
2022/06/17 10:09:10;;;;;;;5.72;2.60;;;23.80;99.90;;;;;;5014305;28;20251;-75
2022/06/17 10:12:13;;;;;;;3.30;2.45;;;23.90;99.90;;;;;;5011781;28;20698;-74
2022/06/17 10:15:34;;;;;;;6.13;2.60;;;24.00;99.90;;;;;;5017178;28;20241;-78
2022/06/17 10:18:42;;;;;;;11.93;2.78;;;24.10;99.90;;;;;;5012326;28;20204;-77
2022/06/17 10:21:47;;;;;;;3.75;2.50;;;24.30;99.90;;;;;;5009293;28;20397;-78
2022/06/17 10:25:08;;;;;;;5.78;2.70;;;24.40;99.90;;;;;;5018412;28;20191;-78
2022/06/17 10:28:20;;;;;;;3.33;2.35;;;24.40;99.90;;;;;;5029706;28;20234;-79
2022/06/17 10:31:33;;;;;;;6.13;2.60;;;24.40;99.90;;;;;;5028213;28;20219;-77
2022/06/17 10:34:27;;;;;;;10.23;2.72;;;24.50;99.90;;;;;;5029430;28;20234;-78
2022/06/17 10:37:13;;;;;;;6.40;2.80;;;24.70;99.90;;;;;;5021288;28;20247;-79
2022/06/17 10:39:57;;;;;;;4.03;2.55;;;24.70;99.90;;;;;;5011730;28;20191;-78
2022/06/17 10:42:46;;;;;;;3.97;2.38;;;24.80;99.90;;;;;;5008437;28;20338;-77
2022/06/17 10:45:31;;;;;;;5.50;2.40;;;24.90;99.90;;;;;;5009407;28;20227;-78
2022/06/17 10:48:20;;;;;;;4.10;2.50;;;25.00;99.90;;;;;;5029432;28;20195;-78
2022/06/17 10:51:07;;;;;;;3.97;2.40;;;25.00;99.90;;;;;;5024035;28;20230;-79
2022/06/17 10:53:55;;;;;;;4.38;2.45;;;25.00;99.90;;;;;;5025404;28;20196;-77
2022/06/17 10:56:46;;;;;;;4.93;2.58;;;25.00;99.90;;;;;;5017144;28;20307;-78
2022/06/17 10:59:42;;;;;;;5.00;2.80;;;25.10;99.90;;;;;;5026666;28;20198;-78
2022/06/17 11:02:30;;;;;;;10.88;3.58;;;25.20;99.90;;;;;;5010632;28;20207;-80
2022/06/17 11:05:29;;;;;;;3.80;2.17;;;25.20;99.90;;;;;;5013402;28;20256;-78
2022/06/17 11:08:23;;;;;;;11.20;4.32;;;25.20;99.90;;;;;;5026164;28;20200;-78
2022/06/17 11:14:25;;;;;;;10.68;4.05;;;25.20;99.90;;;;;;5018761;28;20263;-78
2022/06/17 11:17:41;;;;;;;9.57;3.50;;;25.20;99.90;;;;;;5007544;28;20179;-78
2022/06/17 11:20:29;;;;;;;4.20;2.58;;;25.30;99.90;;;;;;5018345;28;20216;-78
2022/06/17 11:23:21;;;;;;;3.95;2.13;;;25.30;99.90;;;;;;5014859;28;20571;-78
2022/06/17 11:26:19;;;;;;;3.47;2.03;;;25.30;99.90;;;;;;5027319;28;20663;-78
2022/06/17 11:29:19;;;;;;;7.22;2.05;;;25.30;99.90;;;;;;5017798;28;20195;-80
2022/06/17 11:32:29;;;;;;;5.75;2.20;;;25.40;99.90;;;;;;5007641;28;20223;-79
2022/06/17 11:35:29;;;;;;;4.57;2.20;;;25.40;99.90;;;;;;5008661;28;20703;-78
2022/06/17 11:38:15;;;;;;;4.85;2.10;;;25.40;99.90;;;;;;5014639;28;20192;-79
2022/06/17 11:41:00;;;;;;;4.97;2.40;;;25.40;99.90;;;;;;5029452;28;20258;-78
2022/06/17 11:43:47;;;;;;;5.10;2.20;;;25.50;99.90;;;;;;5024966;28;20279;-80
2022/06/17 11:46:34;;;;;;;4.15;1.95;;;25.50;99.90;;;;;;5014760;28;20255;-80
2022/06/17 11:49:20;;;;;;;1.98;1.77;;;25.50;99.90;;;;;;5016560;28;20214;-81
2022/06/17 11:52:08;;;;;;;4.97;2.15;;;25.50;99.90;;;;;;5013972;28;20243;-79
2022/06/17 11:54:53;;;;;;;2.78;1.83;;;25.60;99.90;;;;;;5004316;28;20199;-77
2022/06/17 11:57:40;;;;;;;2.70;2.10;;;25.60;99.90;;;;;;5013556;28;20179;-77
2022/06/17 12:00:48;;;;;;;4.55;2.00;;;25.60;99.90;;;;;;5014399;28;20247;-78
2022/06/17 12:03:33;;;;;;;2.40;2.05;;;25.60;99.90;;;;;;5008566;28;20199;-77
2022/06/17 12:06:22;;;;;;;9.77;2.47;;;25.50;99.90;;;;;;5024545;28;20319;-82
2022/06/17 12:09:22;;;;;;;3.53;1.70;;;25.50;99.90;;;;;;5030063;28;20203;-79
2022/06/17 12:12:15;;;;;;;10.10;2.20;;;25.50;99.90;;;;;;5029767;28;20247;-81
2022/06/17 12:15:22;;;;;;;3.83;2.13;;;25.60;99.90;;;;;;5009663;28;20200;-78
2022/06/17 12:18:14;;;;;;;2.05;1.85;;;25.60;99.90;;;;;;5014107;28;20249;-78
2022/06/17 12:21:04;;;;;;;2.35;2.15;;;25.60;99.90;;;;;;5029732;28;20272;-78
2022/06/17 12:23:57;;;;;;;3.60;2.10;;;25.60;99.90;;;;;;5027011;28;20188;-78
2022/06/17 12:26:53;;;;;;;3.10;1.92;;;25.60;99.90;;;;;;5004489;28;20199;-78
2022/06/17 12:29:47;;;;;;;4.47;2.05;;;25.50;99.90;;;;;;5014032;28;20242;-79
2022/06/17 12:32:31;;;;;;;4.30;2.15;;;25.50;99.90;;;;;;5015159;28;20278;-77
2022/06/17 12:35:40;;;;;;;3.97;2.08;;;25.50;99.90;;;;;;5008264;28;20187;-80
2022/06/17 12:38:52;;;;;;;2.97;1.75;;;25.50;99.90;;;;;;5012767;28;20242;-78
2022/06/17 12:42:08;;;;;;;6.28;2.60;;;25.60;99.90;;;;;;5008647;28;20215;-77
2022/06/17 12:45:29;;;;;;;4.10;1.98;;;25.60;99.90;;;;;;5014699;28;20206;-79
2022/06/17 12:48:45;;;;;;;5.13;2.10;;;25.70;99.90;;;;;;5019002;28;20196;-78
2022/06/17 12:55:05;;;;;;;2.83;1.88;;;25.80;99.90;;;;;;5014032;28;20196;-78
2022/06/17 12:58:07;;;;;;;8.85;2.00;;;25.90;99.90;;;;;;5027984;28;20249;-78
2022/06/17 13:01:13;;;;;;;4.30;1.92;;;25.90;99.90;;;;;;5012626;28;20581;-79
2022/06/17 13:04:17;;;;;;;3.92;2.00;;;25.90;99.90;;;;;;5020634;28;20216;-79
2022/06/17 13:07:25;;;;;;;2.40;1.90;;;25.90;99.90;;;;;;5007938;28;20199;-78
2022/06/17 13:10:39;;;;;;;2.92;2.33;;;25.90;99.90;;;;;;5027593;28;20190;-78
2022/06/17 13:13:45;;;;;;;4.50;2.38;;;25.90;99.90;;;;;;5011747;28;20211;-79
2022/06/17 13:16:36;;;;;;;2.95;2.03;;;25.90;99.90;;;;;;5031295;28;20223;-77
2022/06/17 13:19:31;;;;;;;3.35;1.92;;;25.90;99.90;;;;;;5015451;28;20192;-79
2022/06/17 13:22:26;;;;;;;6.47;2.33;;;26.00;99.90;;;;;;5012510;28;20304;-79
2022/06/17 13:25:22;;;;;;;5.25;2.45;;;26.10;99.90;;;;;;5029768;28;20195;-78
2022/06/17 13:28:13;;;;;;;5.90;1.88;;;26.10;99.90;;;;;;5005180;28;20650;-80
2022/06/17 13:31:03;;;;;;;6.97;2.50;;;26.10;99.90;;;;;;5027353;28;20224;-79
2022/06/17 13:33:54;;;;;;;2.95;1.90;;;26.10;99.90;;;;;;5004957;28;20207;-79
2022/06/17 13:36:56;;;;;;;4.28;2.00;;;26.10;99.90;;;;;;5026851;28;20625;-78
2022/06/17 13:39:45;;;;;;;3.17;2.10;;;26.20;99.90;;;;;;5029444;28;20242;-79
2022/06/17 13:42:31;;;;;;;3.25;2.20;;;26.20;99.90;;;;;;5012056;28;20191;-79
2022/06/17 13:45:32;;;;;;;3.67;2.17;;;26.20;99.90;;;;;;5022356;28;20196;-81
2022/06/17 13:48:28;;;;;;;3.05;2.03;;;26.20;99.90;;;;;;5020275;28;20227;-79
2022/06/17 13:51:31;;;;;;;3.10;1.90;;;26.30;99.90;;;;;;5029147;28;20223;-78
2022/06/17 13:54:48;;;;;;;11.82;2.70;;;26.30;99.90;;;;;;5018097;28;20203;-77
2022/06/17 13:57:41;;;;;;;4.90;2.05;;;26.30;99.90;;;;;;5012666;28;20577;-82
2022/06/17 14:00:27;;;;;;;3.20;2.03;;;26.30;99.90;;;;;;5013067;28;20218;-78
2022/06/17 14:03:17;;;;;;;5.22;1.92;;;26.30;99.90;;;;;;5010414;28;20650;-78
2022/06/17 14:06:03;;;;;;;4.28;2.20;;;26.30;99.90;;;;;;5013815;28;20196;-79
2022/06/17 14:08:53;;;;;;;3.53;1.90;;;26.30;99.90;;;;;;5023966;28;20242;-80
2022/06/17 14:11:44;;;;;;;3.80;1.83;;;26.40;99.90;;;;;;5012653;28;20579;-79
2022/06/17 14:14:29;;;;;;;4.32;2.05;;;26.40;99.90;;;;;;5018380;28;20691;-80
2022/06/17 14:17:22;;;;;;;3.25;1.85;;;26.40;99.90;;;;;;5013728;28;20282;-80
2022/06/17 14:20:40;;;;;;;4.32;1.83;;;26.50;99.90;;;;;;5016740;28;20202;-79
2022/06/17 14:23:29;;;;;;;4.15;1.60;;;26.50;99.90;;;;;;5008248;28;20196;-78
2022/06/17 14:26:40;;;;;;;9.68;2.30;;;26.60;99.90;;;;;;5021055;28;20323;-80
2022/06/17 14:29:32;;;;;;;3.55;2.33;;;26.70;99.90;;;;;;5020522;28;20192;-79
2022/06/17 14:32:45;;;;;;;6.32;2.58;;;26.60;99.90;;;;;;5027539;28;20240;-80
2022/06/17 14:35:32;;;;;;;2.95;1.40;;;26.70;99.90;;;;;;5019335;28;20236;-79
2022/06/17 14:38:22;;;;;;;4.30;1.60;;;26.60;99.90;;;;;;5007430;28;20188;-81
2022/06/17 14:42:02;;;;;;;3.83;1.80;;;26.70;99.90;;;;;;5028253;28;20220;-78
2022/06/17 14:45:06;;;;;;;4.95;1.70;;;26.70;99.90;;;;;;5009035;28;20195;-80
2022/06/17 14:48:05;;;;;;;4.32;1.70;;;26.80;99.90;;;;;;5029536;28;20186;-80
2022/06/17 14:50:53;;;;;;;3.50;1.60;;;26.80;99.90;;;;;;5020426;28;20211;-80
2022/06/17 14:53:46;;;;;;;2.22;1.15;;;27.00;99.90;;;;;;5028989;28;20211;-80
2022/06/17 14:56:44;;;;;;;4.50;2.25;;;27.00;99.90;;;;;;5011916;28;20192;-80
2022/06/17 14:59:37;;;;;;;5.18;1.92;;;27.00;99.90;;;;;;5015884;28;20195;-80
2022/06/17 15:02:37;;;;;;;2.63;1.30;;;27.00;99.90;;;;;;5017623;28;20243;-80
2022/06/17 15:05:25;;;;;;;2.63;1.13;;;27.00;99.90;;;;;;5028580;28;20191;-80